Terminal Aerodrome Forecast
Issued by NWS Cleveland, OH

Home | Current Version | Previous Version | Text Only | Print | Product List | Glossary On
Versions: 1 2 3 4 5 6 7 8 9 10 11 12 13 14 15 16 17 18 19 20 21 22
000
FTUS41 KCLE 261700
TAFCAK
TAF
KCAK 261739Z 2618/2718 35008KT 5SM -RA BR BKN008 OVC010
     FM262100 32008KT 3SM BR VCSH SCT008 OVC015
     FM262300 30008KT P6SM OVC025
     FM270300 28007KT P6SM OVC035
     FM271100 32008KT P6SM OVC019
     FM271700 33008KT P6SM OVC030=

USA.gov is the U.S. government's official web portal to all federal, state and local government web resources and services.